San Jacinto, California
Current Conditions -  °F | °C
As of 1:55 PM on Friday 24 Oct 2014 (Local Time) from KF70 Reporting Station
Clear Clear  
Wind Chill: 90°   Ceiling: Unl
Heat Index: 90°   Visibility: 10mi
Dew Point: 37°   Wind: 10mph
Humidity: 16%   Direction: 200°SSW
Pressure: 29.96"   Gusts: 17mph
Location:  33.78°N, 116.95°W
Report Text: KF70 242055Z AUTO 20009G15KT 10SM CLR 32/03 A2996 RMK AO1
Loading
Personal Weather Stations






























Interactive Weather Map
Tropical Storm Tracking
New forecast layout! Learn more

10-Day Weather Forecast

Advertisements
Track Severe Weather on mobile